METAR Formatted Surface Weather Observation
Issued by NWS

Home | Current Version | Previous Version | Text Only | Print | Product List | Glossary On
Versions: 1 2 3 4 5 6 7 8 9 10 11 12 13 14 15 16 17 18 19 20 21
000
SAUS41 KRLX 270558 COR
MTRCKB
METAR KCKB 270553Z 29006KT 7SM OVC008 M05/M06 A2984 RMK AO2 SLP112
60000 T10501061 11028 21050 50001



USA.gov is the U.S. government's official web portal to all federal, state and local government web resources and services.